Time;durP1;ratioP1;P1;durP2;ratioP2;P2;SDS_P1;SDS_P2;PMS_P1;PMS_P2;Temp;Humidity;BMP_temperature;BMP_pressure;BME280_temperature;BME280_humidity;BME280_pressure;Samples;Min_cycle;Max_cycle;Signal;HPM_P1;HPM_P2
2021/01/13 00:00:25;;;;;;;26.58;7.97;;;0.60;99.90;;;1.18;95.00;100631.16;5037910;28;20087;-82
2021/01/13 00:02:51;;;;;;;28.50;8.82;;;0.60;99.90;;;1.13;94.76;100625.72;5038548;28;20022;-82
2021/01/13 00:05:18;;;;;;;19.67;7.35;;;0.60;99.90;;;1.13;95.20;100635.88;5021880;28;20037;-84
2021/01/13 00:07:49;;;;;;;26.73;7.47;;;0.60;99.90;;;1.18;94.90;100611.91;5044229;28;20029;-81
2021/01/13 00:10:16;;;;;;;24.48;7.93;;;0.60;99.90;;;1.06;95.27;100626.06;5044191;28;20056;-81
2021/01/13 00:12:42;;;;;;;21.92;8.13;;;0.50;99.90;;;1.11;95.65;100622.44;5025605;28;20026;-82
2021/01/13 00:15:11;;;;;;;25.90;8.75;;;0.60;99.90;;;1.18;95.40;100625.66;5021602;28;20036;-83
2021/01/13 00:17:39;;;;;;;19.38;6.65;;;0.60;99.90;;;1.17;95.06;100625.94;5044991;28;20025;-85
2021/01/13 00:20:07;;;;;;;21.20;7.45;;;0.60;99.90;;;1.23;95.04;100627.50;5029643;28;20033;-83
2021/01/13 00:22:34;;;;;;;24.27;8.00;;;0.60;99.90;;;1.23;94.63;100627.50;5022475;28;20029;-84
2021/01/13 00:25:00;;;;;;;31.45;7.50;;;0.60;99.90;;;1.23;94.51;100631.06;5038953;28;20068;-83
2021/01/13 00:27:26;;;;;;;23.90;8.07;;;0.60;99.90;;;1.18;94.63;100646.84;5019369;28;20041;-82
2021/01/13 00:29:53;;;;;;;24.33;6.88;;;0.60;99.90;;;1.14;94.30;100634.78;5037056;28;20036;-82
2021/01/13 00:32:20;;;;;;;26.75;8.05;;;0.50;99.90;;;1.06;95.40;100637.06;5035837;28;20080;-83
2021/01/13 00:34:47;;;;;;;18.38;8.20;;;0.60;99.90;;;1.14;94.94;100641.09;5035271;28;20030;-82
2021/01/13 00:37:14;;;;;;;19.40;7.32;;;0.60;99.90;;;1.20;94.77;100634.41;5020981;28;20029;-83
2021/01/13 00:39:40;;;;;;;23.88;7.47;;;0.60;99.90;;;1.13;94.79;100642.22;5039087;28;20037;-84
2021/01/13 00:42:06;;;;;;;20.95;7.25;;;0.60;99.90;;;1.05;95.04;100637.38;5037199;28;20037;-84
2021/01/13 00:44:32;;;;;;;25.73;7.72;;;0.60;99.90;;;1.11;95.22;100633.44;5020549;28;20143;-83
2021/01/13 00:46:58;;;;;;;19.85;7.03;;;0.60;99.90;;;1.11;94.49;100629.88;5036861;28;20385;-84
2021/01/13 00:49:23;;;;;;;21.13;7.90;;;0.60;99.90;;;1.14;95.00;100634.78;5026640;28;20072;-83
2021/01/13 00:51:49;;;;;;;22.00;8.77;;;0.60;99.90;;;1.18;94.93;100631.16;5032740;28;20026;-81
2021/01/13 00:54:18;;;;;;;24.75;8.00;;;0.60;99.90;;;1.20;94.53;100625.34;5033441;28;20026;-83
2021/01/13 00:56:48;;;;;;;22.10;7.10;;;0.70;99.90;;;1.24;94.47;100615.38;5050646;28;20037;-83
2021/01/13 00:59:15;;;;;;;23.55;7.20;;;0.70;99.90;;;1.27;94.59;100618.38;5037638;28;20373;-83
2021/01/13 01:01:43;;;;;;;20.90;6.70;;;0.70;99.90;;;1.20;94.31;100620.66;5036268;28;20040;-83
2021/01/13 01:04:12;;;;;;;25.38;7.32;;;0.70;99.90;;;1.17;94.47;100621.25;5035679;28;20575;-83
2021/01/13 01:06:39;;;;;;;25.85;7.07;;;0.70;99.90;;;1.19;93.97;100626.47;5018562;28;20039;-83
2021/01/13 01:09:08;;;;;;;20.27;6.45;;;0.60;99.90;;;1.20;94.57;100633.59;5036720;28;20100;-83
2021/01/13 01:11:39;;;;;;;21.40;6.68;;;0.60;99.90;;;1.19;94.39;100630.03;5036750;28;20085;-83
2021/01/13 01:14:09;;;;;;;21.08;7.13;;;0.70;99.90;;;1.23;94.34;100628.31;5019667;28;20033;-84
2021/01/13 01:16:40;;;;;;;27.60;6.72;;;0.60;99.90;;;1.24;94.06;100634.66;5037923;28;20085;-83
2021/01/13 01:19:09;;;;;;;20.67;6.82;;;0.70;99.90;;;1.29;94.01;100634.56;5038336;28;20025;-84
2021/01/13 01:21:42;;;;;;;19.65;6.35;;;0.60;99.90;;;1.21;94.12;100630.56;5040658;28;20041;-83
2021/01/13 01:24:09;;;;;;;25.48;6.30;;;0.70;99.90;;;1.24;94.77;100632.72;5052881;28;20026;-83
2021/01/13 01:26:47;;;;;;;18.58;6.75;;;0.70;99.90;;;1.20;94.22;100630.84;5021251;28;20041;-82
2021/01/13 01:29:14;;;;;;;21.92;7.47;;;0.60;99.90;;;1.20;94.78;100641.84;5034821;28;20037;-84
2021/01/13 01:31:41;;;;;;;23.15;7.25;;;0.70;99.90;;;1.20;94.71;100633.59;5034883;28;20034;-83
2021/01/13 01:34:07;;;;;;;24.08;8.13;;;0.70;99.90;;;1.31;94.35;100632.34;5035978;28;20033;-83
2021/01/13 01:36:34;;;;;;;21.10;7.63;;;0.70;99.90;;;1.29;93.55;100642.81;5036945;28;20040;-83
2021/01/13 01:39:00;;;;;;;20.17;7.00;;;0.70;99.90;;;1.27;94.35;100645.88;5035758;28;20041;-83
2021/01/13 01:41:26;;;;;;;18.23;7.60;;;0.80;99.90;;;1.29;94.26;100642.81;5039388;28;20045;-83
2021/01/13 01:43:52;;;;;;;14.77;6.97;;;0.80;99.90;;;1.43;94.05;100652.81;5023075;28;20084;-83
2021/01/13 01:46:21;;;;;;;20.05;8.43;;;0.80;99.90;;;1.34;94.24;100654.59;5040999;28;20056;-83
2021/01/13 01:48:58;;;;;;;19.60;7.95;;;0.80;99.90;;;1.38;94.53;100655.59;5040425;28;20044;-83
2021/01/13 01:51:33;;;;;;;23.77;8.40;;;0.80;99.90;;;1.45;93.92;100652.50;5040465;28;20041;-81
2021/01/13 01:54:24;;;;;;;21.85;6.78;;;0.90;99.90;;;1.49;93.83;100659.03;5040280;28;20029;-81
2021/01/13 01:56:54;;;;;;;20.88;7.55;;;0.90;99.90;;;1.35;93.49;100658.16;5041561;28;20038;-84
2021/01/13 02:00:06;;;;;;;23.55;8.60;;;0.80;99.90;;;1.22;94.34;100654.19;5039019;28;20041;-82
2021/01/13 02:02:59;;;;;;;14.48;7.22;;;0.80;99.90;;;1.33;93.85;100652.13;5040507;28;20033;-84
2021/01/13 02:05:27;;;;;;;19.42;7.45;;;0.70;99.90;;;1.26;93.88;100647.00;5039611;28;20034;-84
2021/01/13 02:08:01;;;;;;;20.38;8.43;;;0.70;99.90;;;1.21;94.33;100652.56;5021983;28;20037;-84
2021/01/13 02:10:27;;;;;;;29.25;9.18;;;0.70;99.90;;;1.18;94.45;100655.09;5038930;28;20561;-84
2021/01/13 02:13:07;;;;;;;24.75;8.82;;;0.70;99.90;;;1.13;94.79;100661.47;5039260;28;20481;-84
2021/01/13 02:15:33;;;;;;;26.05;9.27;;;0.60;99.90;;;1.21;94.28;100654.50;5023429;28;20025;-82
2021/01/13 02:18:04;;;;;;;21.17;8.40;;;0.70;99.90;;;1.19;94.41;100657.53;5023525;28;20029;-84
2021/01/13 02:20:32;;;;;;;17.90;7.18;;;0.60;99.90;;;1.19;94.33;100657.53;5039903;28;20026;-83
2021/01/13 02:23:06;;;;;;;23.25;8.02;;;0.60;99.90;;;1.20;94.09;100653.69;5041568;28;20057;-83
2021/01/13 02:26:33;;;;;;;22.35;10.60;;;0.60;99.90;;;1.14;94.55;100648.53;5023953;28;20164;-83
2021/01/13 02:29:35;;;;;;;27.17;8.00;;;0.60;99.90;;;1.25;93.92;100650.88;5023588;28;20029;-83
2021/01/13 02:32:16;;;;;;;19.60;8.15;;;0.60;99.90;;;1.19;94.20;100654.78;5041849;28;20243;-84
2021/01/13 02:35:04;;;;;;;17.75;8.50;;;0.70;99.90;;;1.25;93.68;100656.38;5040797;28;20520;-82
2021/01/13 02:38:08;;;;;;;24.88;7.72;;;0.70;99.90;;;1.22;94.31;100659.69;5041607;28;20032;-84
2021/01/13 02:40:36;;;;;;;19.23;7.68;;;0.70;99.90;;;1.26;94.19;100658.00;5025877;28;20044;-81
2021/01/13 02:43:09;;;;;;;29.77;9.95;;;0.70;99.90;;;1.30;94.04;100661.78;5039186;28;20026;-83
2021/01/13 02:45:46;;;;;;;21.63;8.77;;;0.80;99.90;;;1.35;93.26;100658.97;5038971;28;20025;-83
2021/01/13 02:48:24;;;;;;;22.05;8.35;;;0.80;99.90;;;1.33;93.83;100666.72;5037987;28;20038;-82
2021/01/13 02:51:00;;;;;;;20.02;8.10;;;0.80;99.90;;;1.39;93.43;100662.75;5020698;28;20037;-84
2021/01/13 02:53:29;;;;;;;27.15;8.90;;;0.80;99.90;;;1.43;93.02;100665.75;5038681;28;20102;-82
2021/01/13 02:56:31;;;;;;;20.10;7.32;;;0.80;99.90;;;1.28;93.47;100664.03;5038718;28;20025;-84
2021/01/13 02:59:10;;;;;;;20.15;7.88;;;0.80;99.90;;;1.38;92.95;100660.31;5021383;28;20384;-83
2021/01/13 03:01:41;;;;;;;19.13;8.10;;;0.80;99.90;;;1.32;93.26;100662.31;5037415;28;20029;-83
2021/01/13 03:04:09;;;;;;;14.63;7.53;;;0.80;99.90;;;1.40;92.96;100661.66;5037358;28;20025;-83
2021/01/13 03:06:44;;;;;;;22.55;8.13;;;0.80;99.90;;;1.38;93.56;100674.09;5021260;28;20061;-83
2021/01/13 03:09:12;;;;;;;18.38;8.00;;;0.80;99.90;;;1.38;93.26;100674.09;5020704;28;20029;-83
2021/01/13 03:11:41;;;;;;;20.77;7.70;;;0.80;99.90;;;1.37;93.27;100676.00;5039212;28;20033;-84
2021/01/13 03:14:19;;;;;;;23.48;8.00;;;0.80;99.90;;;1.38;93.32;100672.13;5039191;28;20104;-84
2021/01/13 03:17:05;;;;;;;23.70;8.02;;;0.80;99.90;;;1.41;93.19;100666.03;5021374;28;20044;-81
2021/01/13 03:20:18;;;;;;;14.50;8.35;;;0.80;99.90;;;1.38;93.77;100672.13;5038971;28;20041;-84
2021/01/13 03:23:30;;;;;;;22.70;7.53;;;0.90;99.90;;;1.52;93.69;100686.78;5037847;28;20034;-83
2021/01/13 03:26:06;;;;;;;19.98;8.20;;;1.00;99.90;;;1.63;93.16;100681.16;5020796;28;20033;-83
2021/01/13 03:28:38;;;;;;;23.63;7.80;;;1.10;99.90;;;1.73;92.64;100689.25;5037511;28;20116;-83
2021/01/13 03:31:09;;;;;;;22.08;7.97;;;1.10;99.90;;;1.47;93.66;100675.06;5021394;28;20060;-83
2021/01/13 03:34:26;;;;;;;18.90;7.28;;;1.10;99.90;;;1.71;92.39;100680.47;5021386;28;20038;-83
2021/01/13 03:37:31;;;;;;;10.50;4.82;;;1.10;99.90;;;1.51;92.66;100665.88;5040087;28;20033;-84
2021/01/13 03:39:57;;;;;;;21.20;7.20;;;1.00;99.90;;;1.53;92.82;100665.59;5026818;28;20029;-84
2021/01/13 03:42:23;;;;;;;18.48;8.18;;;1.00;99.90;;;1.57;92.76;100669.41;5053655;28;20026;-83
2021/01/13 03:44:51;;;;;;;19.02;7.80;;;1.10;99.90;;;1.57;93.45;100667.44;5039487;28;20033;-82
2021/01/13 03:47:29;;;;;;;27.33;7.55;;;1.10;99.90;;;1.66;93.23;100684.13;5036298;28;20485;-83
2021/01/13 03:50:32;;;;;;;24.10;7.45;;;1.10;99.90;;;1.79;92.72;100680.63;5019817;28;20033;-83
2021/01/13 03:53:11;;;;;;;16.30;7.70;;;1.30;99.90;;;1.88;92.42;100680.75;5037663;28;20040;-83
2021/01/13 03:55:42;;;;;;;16.85;7.80;;;1.30;99.90;;;1.89;92.00;100672.19;5036483;28;20080;-84
2021/01/13 03:58:49;;;;;;;21.08;7.47;;;1.30;99.90;;;1.95;92.25;100681.19;5037005;28;20052;-83
2021/01/13 04:01:41;;;;;;;;;;;1.30;99.90;;;1.99;91.21;100685.78;5038479;28;20561;-84
2021/01/13 04:04:42;;;;;;;17.02;6.38;;;1.40;99.90;;;2.07;90.75;100684.28;5045411;28;19981;-84
2021/01/13 04:07:10;;;;;;;19.35;6.78;;;1.40;99.90;;;2.04;90.59;100691.22;5046377;28;20057;-83
2021/01/13 04:09:37;;;;;;;14.65;6.63;;;1.40;99.90;;;1.79;91.91;100686.13;5048445;28;20037;-83
2021/01/13 04:12:16;;;;;;;17.52;7.28;;;1.40;99.90;;;1.93;91.27;100684.25;5048914;28;20029;-82
2021/01/13 04:14:55;;;;;;;16.02;6.43;;;1.40;99.90;;;1.97;91.18;100685.28;5046384;28;20036;-81
2021/01/13 04:17:25;;;;;;;14.98;6.40;;;1.30;99.90;;;1.90;91.57;100682.09;5039768;28;20098;-82
2021/01/13 04:19:55;;;;;;;19.48;7.03;;;1.40;99.90;;;1.96;91.11;100671.78;5040089;28;20025;-83
2021/01/13 04:22:26;;;;;;;16.73;6.07;;;1.30;99.90;;;1.87;91.42;100673.59;5022541;28;20492;-84
2021/01/13 04:24:55;;;;;;;18.50;6.57;;;1.30;99.90;;;1.79;90.99;100671.53;5038234;28;20484;-80
2021/01/13 04:27:21;;;;;;;21.75;7.10;;;1.20;99.90;;;1.71;91.35;100669.44;5037053;28;20057;-82
2021/01/13 04:29:48;;;;;;;20.25;7.85;;;1.20;99.90;;;1.76;91.82;100669.38;5036735;28;20034;-83
2021/01/13 04:32:15;;;;;;;23.88;6.85;;;1.20;99.90;;;1.81;91.48;100667.38;5020160;28;20473;-82
2021/01/13 04:34:42;;;;;;;20.13;6.93;;;1.20;99.90;;;1.80;91.64;100662.16;5023721;28;20284;-82
2021/01/13 04:37:10;;;;;;;22.42;7.72;;;1.20;99.90;;;1.81;91.23;100664.59;5028221;28;20109;-85
2021/01/13 04:39:38;;;;;;;18.45;6.50;;;1.30;99.90;;;1.74;91.16;100666.09;5039722;28;20029;-82
2021/01/13 04:42:10;;;;;;;22.52;6.20;;;1.20;99.90;;;1.79;91.48;100666.03;5022778;28;20124;-84
2021/01/13 04:45:01;;;;;;;24.58;7.50;;;1.20;99.90;;;1.74;91.73;100666.09;5022188;28;20034;-83
2021/01/13 04:47:46;;;;;;;15.38;6.78;;;1.20;99.90;;;1.69;91.32;100668.94;5049366;28;20496;-84
2021/01/13 04:50:17;;;;;;;24.10;7.82;;;1.20;99.90;;;1.75;91.42;100657.56;5045783;28;20040;-84
2021/01/13 04:52:43;;;;;;;13.27;6.57;;;1.20;99.90;;;1.65;91.85;100665.13;5044520;28;20481;-84
2021/01/13 04:55:28;;;;;;;22.75;7.05;;;1.20;99.90;;;1.56;92.21;100656.75;5041832;28;20067;-85
2021/01/13 04:58:50;;;;;;;15.23;7.30;;;1.10;99.90;;;1.60;92.11;100652.28;5025043;28;20037;-87
2021/01/13 05:01:38;;;;;;;18.27;7.10;;;1.10;99.90;;;1.54;92.45;100659.78;5039766;28;20466;-85
2021/01/13 05:05:04;;;;;;;20.30;8.85;;;1.10;99.90;;;1.50;93.02;100653.25;5040806;28;20033;-84
2021/01/13 05:07:41;;;;;;;22.33;8.10;;;1.10;99.90;;;1.54;93.09;100647.97;5025048;28;20033;-84
2021/01/13 05:10:14;;;;;;;22.25;9.30;;;1.10;99.90;;;1.59;93.22;100645.13;5024240;28;20461;-84
2021/01/13 05:12:58;;;;;;;21.00;8.82;;;1.10;99.90;;;1.64;93.12;100642.28;5040371;28;20124;-86
2021/01/13 05:15:31;;;;;;;18.48;9.43;;;1.10;99.90;;;1.53;93.54;100640.81;5023353;28;20060;-83
2021/01/13 05:18:10;;;;;;;23.83;9.38;;;1.10;99.90;;;1.45;93.95;100639.56;5027490;28;20033;-86
2021/01/13 05:20:54;;;;;;;24.65;9.13;;;1.10;99.90;;;1.62;93.81;100639.03;5045470;28;20458;-85
2021/01/13 05:23:22;;;;;;;19.17;11.02;;;1.20;99.90;;;1.74;93.58;100631.13;5028909;28;20034;-86
2021/01/13 05:25:51;;;;;;;18.77;10.25;;;1.20;99.90;;;1.72;93.53;100632.53;5027509;28;20105;-84
2021/01/13 05:28:26;;;;;;;21.40;9.77;;;1.30;99.90;;;1.77;93.57;100630.53;5044566;28;20060;-85
2021/01/13 05:30:58;;;;;;;24.45;10.40;;;1.30;99.90;;;1.87;93.22;100619.34;5027437;28;20092;-84
2021/01/13 05:33:31;;;;;;;20.38;10.07;;;1.30;99.90;;;1.93;92.64;100628.31;5026707;28;20048;-83
2021/01/13 05:36:05;;;;;;;22.15;9.35;;;1.30;99.90;;;1.86;93.13;100623.19;5038837;28;20026;-83
2021/01/13 05:39:10;;;;;;;19.27;9.45;;;1.30;99.90;;;1.93;93.09;100622.81;5039460;28;20120;-83
2021/01/13 05:41:39;;;;;;;21.13;10.27;;;1.40;99.90;;;1.89;93.75;100621.81;5040623;28;20104;-83
2021/01/13 05:44:07;;;;;;;18.65;10.88;;;1.50;99.90;;;1.91;93.12;100627.81;5041129;28;20034;-84
2021/01/13 05:47:02;;;;;;;17.02;9.98;;;1.50;99.90;;;1.91;93.26;100625.06;5023157;28;20025;-81
2021/01/13 05:49:30;;;;;;;21.60;10.07;;;1.40;99.90;;;1.90;93.40;100628.94;5043837;28;20087;-82
2021/01/13 05:52:08;;;;;;;27.13;11.77;;;1.40;99.90;;;1.91;93.58;100617.63;5042078;28;20033;-83
2021/01/13 05:54:37;;;;;;;23.95;10.95;;;1.40;99.90;;;1.95;93.60;100618.66;5043005;28;20080;-84
2021/01/13 05:57:05;;;;;;;22.67;12.02;;;1.50;99.90;;;1.98;94.00;100615.31;5040929;28;20029;-84
2021/01/13 05:59:34;;;;;;;20.75;10.98;;;1.50;99.90;;;2.09;93.52;100622.25;5039117;28;20032;-84
2021/01/13 06:02:03;;;;;;;22.58;11.60;;;1.50;99.90;;;2.09;93.71;100616.75;5041334;28;20083;-85
2021/01/13 06:04:30;;;;;;;29.83;11.65;;;1.50;99.90;;;2.04;94.15;100608.59;5023851;28;20171;-84
2021/01/13 06:06:58;;;;;;;27.67;10.73;;;1.50;99.90;;;2.17;93.77;100618.00;5046762;28;20049;-80
2021/01/13 06:09:26;;;;;;;32.50;11.38;;;1.60;99.90;;;2.08;94.57;100617.88;5058154;28;20030;-80
2021/01/13 06:11:55;;;;;;;27.83;10.23;;;1.60;99.90;;;2.13;94.53;100617.78;5023039;28;20085;-83
2021/01/13 06:14:30;;;;;;;24.48;10.10;;;1.60;99.90;;;2.15;94.37;100609.22;5037968;28;20560;-84
2021/01/13 06:16:56;;;;;;;20.20;10.18;;;1.60;99.90;;;2.29;94.52;100628.53;5038202;28;20112;-81
2021/01/13 06:19:22;;;;;;;21.58;9.73;;;1.70;99.90;;;2.33;93.62;100632.31;5040248;28;20030;-81
2021/01/13 06:22:11;;;;;;;22.67;10.15;;;1.70;99.90;;;2.25;94.40;100633.81;5039588;28;20034;-83
2021/01/13 06:24:38;;;;;;;24.35;9.10;;;1.70;99.90;;;2.26;94.69;100620.88;5038849;28;20453;-82
2021/01/13 06:27:58;;;;;;;25.85;11.45;;;1.80;99.90;;;2.26;95.11;100626.38;5037784;28;20109;-83
2021/01/13 06:30:31;;;;;;;25.08;10.00;;;1.70;99.90;;;2.36;94.83;100631.69;5038896;28;20033;-84
2021/01/13 06:33:22;;;;;;;26.38;9.95;;;1.80;99.90;;;2.48;94.25;100615.47;5021295;28;20029;-85
2021/01/13 06:36:50;;;;;;;25.08;10.82;;;1.80;99.90;;;2.43;94.80;100626.63;5039689;28;20026;-81
2021/01/13 06:39:17;;;;;;;25.25;12.10;;;1.80;99.90;;;2.46;94.70;100621.31;5038800;28;20032;-85
2021/01/13 06:41:49;;;;;;;30.42;11.57;;;1.80;99.90;;;2.46;94.77;100620.50;5039622;28;20030;-83
2021/01/13 06:44:17;;;;;;;18.65;11.95;;;1.80;99.90;;;2.36;95.36;100618.75;5022679;28;20409;-86
2021/01/13 06:46:43;;;;;;;26.10;12.60;;;1.90;99.90;;;2.50;95.28;100611.31;5021459;28;20033;-83
2021/01/13 06:49:23;;;;;;;28.50;12.07;;;1.90;99.90;;;2.59;94.50;100619.69;5021576;28;20436;-84
2021/01/13 06:51:51;;;;;;;28.88;11.52;;;1.90;99.90;;;2.63;94.61;100618.75;5022732;28;20029;-83
2021/01/13 06:54:21;;;;;;;23.50;11.00;;;1.90;99.90;;;2.58;94.83;100618.88;5021920;28;20103;-85
2021/01/13 06:56:53;;;;;;;27.75;12.30;;;1.90;99.90;;;2.59;94.98;100619.69;5039139;28;20370;-86
2021/01/13 06:59:23;;;;;;;29.48;12.00;;;1.90;99.90;;;2.60;95.27;100613.84;5039570;28;20079;-85
2021/01/13 07:01:59;;;;;;;23.48;10.55;;;2.00;99.90;;;2.62;94.72;100614.38;5041349;28;20104;-85
2021/01/13 07:04:27;;;;;;;;;;;2.00;99.90;;;2.57;95.05;100611.69;5021028;28;20064;-84
2021/01/13 07:07:06;;;;;;;26.17;12.73;;;2.00;99.90;;;2.41;95.59;100607.59;5038690;28;19909;-81
2021/01/13 07:09:43;;;;;;;29.38;12.55;;;1.90;99.90;;;2.47;95.22;100613.88;5037495;28;20029;-86
2021/01/13 07:12:13;;;;;;;27.48;13.13;;;1.90;99.90;;;2.35;95.34;100605.25;5038772;28;20117;-82
2021/01/13 07:14:53;;;;;;;25.63;13.60;;;1.90;99.90;;;2.33;95.54;100610.25;5039028;28;20113;-84
2021/01/13 07:17:23;;;;;;;26.70;14.43;;;1.80;99.90;;;2.28;95.33;100602.91;5021676;28;20025;-85
2021/01/13 07:19:57;;;;;;;35.55;16.55;;;1.70;99.90;;;2.32;95.98;100614.13;5039901;28;20029;-83
2021/01/13 07:22:26;;;;;;;31.52;18.00;;;1.70;99.90;;;2.28;95.94;100610.38;5037366;28;20120;-85
2021/01/13 07:24:55;;;;;;;32.22;17.10;;;1.70;99.90;;;2.25;96.22;100617.28;5018163;28;20397;-83
2021/01/13 07:27:22;;;;;;;32.38;17.17;;;1.80;99.90;;;2.27;96.16;100617.00;5017672;28;20029;-83
2021/01/13 07:29:54;;;;;;;29.88;17.50;;;1.80;99.90;;;2.27;96.24;100617.81;5035500;28;20354;-83
2021/01/13 07:32:39;;;;;;;41.17;18.80;;;1.80;99.90;;;2.23;96.18;100611.28;5034425;28;20041;-82
2021/01/13 07:35:08;;;;;;;34.90;17.42;;;1.80;99.90;;;2.26;95.97;100607.09;5034152;28;20026;-83
2021/01/13 07:37:50;;;;;;;41.75;18.40;;;1.80;99.90;;;2.32;96.13;100619.63;5017510;28;20470;-82
2021/01/13 07:40:36;;;;;;;35.90;17.50;;;1.80;99.90;;;2.30;95.91;100603.44;5034942;28;20029;-83
2021/01/13 07:43:10;;;;;;;42.67;18.10;;;1.80;99.90;;;2.23;96.64;100611.28;5017994;28;20037;-84
2021/01/13 07:45:44;;;;;;;45.70;18.27;;;1.80;99.90;;;2.35;95.84;100619.03;5034254;28;20533;-85
2021/01/13 07:48:14;;;;;;;36.38;18.38;;;1.80;99.90;;;2.35;95.47;100619.84;5018260;28;20033;-84
2021/01/13 07:50:50;;;;;;;36.00;18.80;;;1.80;99.90;;;2.27;95.87;100620.56;5035505;28;20052;-83
2021/01/13 07:53:27;;;;;;;41.47;19.20;;;1.80;99.90;;;2.33;96.35;100624.03;5017971;28;20082;-84
2021/01/13 07:56:02;;;;;;;36.67;16.67;;;1.80;99.90;;;2.43;95.93;100627.44;5018654;28;20029;-82
2021/01/13 07:58:35;;;;;;;42.05;16.65;;;1.80;99.90;;;2.49;95.30;100633.66;5035226;28;20025;-85
2021/01/13 08:01:36;;;;;;;39.00;18.33;;;1.90;99.90;;;2.44;95.20;100633.78;5017931;28;20378;-84
2021/01/13 08:04:51;;;;;;;34.08;17.08;;;1.90;99.90;;;2.44;95.27;100633.78;5036187;28;20025;-84
2021/01/13 08:07:37;;;;;;;45.58;18.38;;;1.90;99.90;;;2.52;95.02;100636.63;5043594;28;20039;-83
2021/01/13 08:10:07;;;;;;;39.03;17.55;;;1.90;99.90;;;2.48;95.24;100638.34;5049372;28;20120;-83
2021/01/13 08:13:23;;;;;;;32.85;16.88;;;2.00;99.90;;;2.60;94.78;100638.66;5039359;28;20037;-84
2021/01/13 08:16:30;;;;;;;35.38;17.27;;;2.00;99.90;;;2.70;94.14;100645.91;5017392;28;20068;-83
2021/01/13 08:20:05;;;;;;;35.05;15.95;;;2.20;99.90;;;2.66;93.50;100644.91;5038019;28;20079;-84
2021/01/13 08:22:31;;;;;;;31.67;15.50;;;2.20;99.90;;;2.60;94.08;100651.66;5021646;28;20037;-81
2021/01/13 08:25:02;;;;;;;36.78;17.00;;;2.20;99.90;;;2.60;94.41;100648.91;5023685;28;20029;-82
2021/01/13 08:27:29;;;;;;;38.08;16.67;;;2.10;99.90;;;2.77;94.08;100649.09;5048874;28;20064;-83
2021/01/13 08:29:58;;;;;;;28.67;15.18;;;2.20;99.90;;;2.77;93.52;100646.34;5035190;28;20073;-82
2021/01/13 08:32:55;;;;;;;27.35;14.15;;;2.30;99.90;;;2.80;93.55;100647.66;5051930;28;20052;-85
2021/01/13 08:35:36;;;;;;;27.20;14.90;;;2.30;99.90;;;2.80;93.33;100642.13;5052994;28;20052;-82
2021/01/13 08:38:11;;;;;;;31.77;15.50;;;2.20;99.90;;;2.73;93.25;100642.53;5051650;28;20025;-85
2021/01/13 08:40:43;;;;;;;33.63;13.98;;;2.20;99.90;;;2.70;93.32;100647.88;5049144;28;20014;-82
2021/01/13 08:43:18;;;;;;;38.92;15.48;;;2.20;99.90;;;2.75;93.48;100647.78;5051960;28;20040;-82
2021/01/13 08:45:52;;;;;;;36.63;15.75;;;2.20;99.90;;;2.69;93.68;100657.28;5051396;28;20143;-83
2021/01/13 08:48:22;;;;;;;38.42;14.68;;;2.30;99.90;;;2.81;94.13;100644.59;5051137;28;20056;-82
2021/01/13 08:51:03;;;;;;;39.25;14.40;;;2.30;99.90;;;3.04;92.91;100643.59;5051754;28;20040;-84
2021/01/13 08:53:31;;;;;;;32.53;13.95;;;2.50;99.90;;;3.17;92.08;100640.00;5050471;28;20021;-84
2021/01/13 08:55:57;;;;;;;31.08;13.30;;;2.50;99.90;;;3.04;92.39;100638.06;5032574;28;20026;-84
2021/01/13 08:58:34;;;;;;;24.60;12.25;;;2.50;99.90;;;3.00;92.68;100638.97;5049910;28;20501;-83
2021/01/13 09:01:08;;;;;;;29.75;12.43;;;2.50;99.90;;;2.98;92.77;100638.47;5051933;28;20029;-81
2021/01/13 09:03:39;;;;;;;31.58;13.48;;;2.50;99.90;;;3.08;92.55;100647.34;5054669;28;20030;-82
2021/01/13 09:06:22;;;;;;;25.52;12.25;;;2.50;99.90;;;3.11;92.35;100648.69;5053495;28;20040;-82
2021/01/13 09:08:57;;;;;;;20.45;10.73;;;2.60;99.90;;;3.16;91.41;100634.75;5053706;28;20021;-81
2021/01/13 09:11:38;;;;;;;26.90;10.93;;;2.60;99.90;;;3.12;91.76;100644.78;5054252;28;20029;-84
2021/01/13 09:14:27;;;;;;;26.42;12.05;;;2.60;99.90;;;3.35;90.54;100637.38;5053364;28;20275;-83
2021/01/13 09:16:55;;;;;;;24.95;10.10;;;2.60;99.90;;;3.30;90.89;100641.09;5050660;28;20030;-82
2021/01/13 09:19:30;;;;;;;24.58;10.50;;;2.70;99.90;;;3.16;91.17;100635.59;5051308;28;20084;-83
2021/01/13 09:22:04;;;;;;;26.25;12.40;;;2.60;99.90;;;3.23;91.18;100635.16;5050183;28;20097;-82
2021/01/13 09:24:58;;;;;;;23.05;11.02;;;2.70;99.90;;;3.33;90.82;100643.22;5051509;28;20033;-83
2021/01/13 09:27:36;;;;;;;24.23;10.07;;;2.80;99.90;;;3.55;90.57;100647.97;5032135;28;20033;-83
2021/01/13 09:30:09;;;;;;;22.17;10.82;;;2.90;99.90;;;3.59;90.25;100641.53;5032373;28;20040;-84
2021/01/13 09:32:53;;;;;;;19.75;11.20;;;3.00;99.90;;;3.68;89.31;100653.47;5048573;28;20025;-84
2021/01/13 09:35:33;;;;;;;23.83;10.45;;;3.00;99.90;;;3.67;89.33;100649.06;5047032;28;20105;-82
2021/01/13 09:38:07;;;;;;;33.00;11.25;;;3.10;99.90;;;3.65;90.20;100647.75;5031662;28;20041;-84
2021/01/13 09:41:02;;;;;;;26.05;11.55;;;3.10;99.90;;;3.80;89.64;100644.59;5047533;28;20028;-84
2021/01/13 09:43:46;;;;;;;27.10;10.77;;;3.30;99.90;;;3.99;88.13;100641.66;5049234;28;20025;-84
2021/01/13 09:46:21;;;;;;;22.80;11.68;;;3.50;99.90;;;4.03;86.86;100639.91;5047497;28;20097;-82
2021/01/13 09:49:10;;;;;;;23.48;13.57;;;3.60;99.90;;;4.26;86.68;100647.03;5047609;28;20128;-83
2021/01/13 09:51:40;;;;;;;28.63;12.55;;;3.70;99.90;;;4.31;86.92;100644.13;5045968;28;20116;-83
2021/01/13 09:54:08;;;;;;;20.88;12.25;;;3.70;99.90;;;4.36;86.22;100643.19;5048740;28;20025;-82
2021/01/13 09:56:38;;;;;;;25.25;12.32;;;3.80;99.90;;;4.03;86.87;100645.41;5046767;28;20075;-83
2021/01/13 09:59:08;;;;;;;24.60;12.27;;;3.70;99.90;;;3.98;87.27;100643.59;5016946;28;20021;-83
2021/01/13 10:01:37;;;;;;;25.70;12.27;;;3.60;99.90;;;4.09;87.24;100652.44;5016559;28;20036;-82
2021/01/13 10:04:12;;;;;;;22.42;12.13;;;3.50;99.90;;;3.97;87.10;100641.97;5036608;28;20036;-83
2021/01/13 10:06:42;;;;;;;21.50;11.85;;;3.50;99.90;;;4.14;86.29;100658.66;5037862;28;20037;-85
2021/01/13 10:09:16;;;;;;;28.15;11.88;;;3.50;99.90;;;3.93;87.74;100648.44;5037572;28;20116;-85
2021/01/13 10:11:43;;;;;;;24.88;11.35;;;3.50;99.90;;;3.92;87.54;100642.09;5019859;28;20040;-84
2021/01/13 10:14:13;;;;;;;24.38;10.45;;;3.50;99.90;;;4.11;87.02;100642.72;5036904;28;20026;-83
2021/01/13 10:16:46;;;;;;;27.70;11.30;;;3.50;99.90;;;3.91;86.90;100642.41;5019374;28;20021;-85
2021/01/13 10:19:13;;;;;;;20.60;10.52;;;3.50;99.90;;;3.94;87.12;100634.31;5019415;28;20053;-85
2021/01/13 10:21:44;;;;;;;26.88;10.43;;;3.40;99.90;;;3.95;87.35;100638.69;5036126;28;20029;-84
2021/01/13 10:24:14;;;;;;;24.20;10.63;;;3.40;99.90;;;4.01;86.90;100639.41;5037079;28;20025;-83
2021/01/13 10:26:51;;;;;;;22.45;10.38;;;3.40;99.90;;;4.07;86.72;100630.66;5018618;28;20561;-84
2021/01/13 10:29:24;;;;;;;23.00;9.60;;;3.50;99.90;;;4.09;86.17;100628.41;5035240;28;20452;-85
2021/01/13 10:31:53;;;;;;;25.73;10.82;;;3.60;99.90;;;4.34;85.99;100615.84;5018944;28;20029;-85
2021/01/13 10:34:19;;;;;;;19.70;9.45;;;3.80;99.90;;;4.49;85.04;100634.81;5035860;28;20029;-83
2021/01/13 10:36:51;;;;;;;21.73;9.02;;;3.90;99.90;;;4.96;84.06;100615.78;5038095;28;20103;-85
2021/01/13 10:39:30;;;;;;;24.75;10.27;;;4.30;99.90;;;5.48;81.13;100628.59;5018692;28;20075;-84
2021/01/13 10:42:05;;;;;;;20.38;8.85;;;4.70;99.90;;;5.79;80.09;100615.38;5035309;28;20029;-82
2021/01/13 10:44:33;;;;;;;21.40;8.70;;;5.20;99.90;;;6.09;79.24;100624.69;5035529;28;20033;-83
2021/01/13 10:47:09;;;;;;;19.10;8.88;;;5.40;99.90;;;5.89;79.00;100624.53;5019192;28;20037;-83
2021/01/13 10:49:46;;;;;;;19.85;10.02;;;5.50;99.90;;;5.70;79.91;100625.66;5044329;28;20056;-84
2021/01/13 10:52:21;;;;;;;21.23;8.20;;;5.40;99.90;;;5.80;79.22;100618.97;5017170;28;20030;-83
2021/01/13 10:54:52;;;;;;;16.30;8.68;;;5.30;99.90;;;5.80;79.51;100618.97;5017061;28;20034;-84